createdAt,value
2022-10-05T00:01:53.148Z,90.60
2022-10-05T00:04:22.015Z,90.40
2022-10-05T00:07:18.943Z,90.30
2022-10-05T00:09:48.547Z,90.20
2022-10-05T00:12:19.887Z,90.00
2022-10-05T00:14:47.909Z,89.50
2022-10-05T00:17:25.104Z,89.10
2022-10-05T00:19:52.836Z,88.10
2022-10-05T00:22:24.725Z,88.20
2022-10-05T00:24:58.799Z,88.20
2022-10-05T00:27:33.080Z,88.10
2022-10-05T00:30:01.425Z,88.10
2022-10-05T00:32:28.552Z,87.80
2022-10-05T00:34:55.620Z,87.50
2022-10-05T00:37:22.645Z,87.30
2022-10-05T00:39:49.639Z,87.40
2022-10-05T00:42:37.103Z,87.70
2022-10-05T00:45:12.932Z,87.70
2022-10-05T00:48:30.776Z,87.90
2022-10-05T00:51:17.264Z,87.70
2022-10-05T00:54:06.336Z,87.30
2022-10-05T00:57:14.911Z,87.30
2022-10-05T01:00:00.333Z,87.20
2022-10-05T01:02:57.952Z,87.10
2022-10-05T01:05:46.294Z,86.70
2022-10-05T01:08:31.325Z,86.80
2022-10-05T01:11:18.650Z,86.90
2022-10-05T01:13:59.123Z,86.40
2022-10-05T01:16:32.145Z,86.40
2022-10-05T01:19:02.310Z,86.40
2022-10-05T01:21:29.633Z,86.20
2022-10-05T01:24:33.543Z,86.30
2022-10-05T01:27:25.046Z,85.90
2022-10-05T01:30:05.079Z,85.80
2022-10-05T01:32:50.229Z,85.30
2022-10-05T01:35:32.826Z,85.30
2022-10-05T01:38:06.435Z,85.40
2022-10-05T01:40:50.362Z,85.60
2022-10-05T01:43:29.328Z,85.70
2022-10-05T01:45:59.603Z,85.90
2022-10-05T01:48:52.892Z,86.00
2022-10-05T01:51:48.815Z,86.00
2022-10-05T01:54:53.234Z,86.40
2022-10-05T01:57:39.236Z,86.40
2022-10-05T02:00:13.108Z,86.40
2022-10-05T02:02:58.137Z,86.70
2022-10-05T02:05:27.621Z,87.00
2022-10-05T02:07:56.264Z,87.00
2022-10-05T02:10:37.130Z,87.50
2022-10-05T02:13:11.661Z,87.70
2022-10-05T02:15:56.272Z,88.20
2022-10-05T02:18:33.198Z,88.30
2022-10-05T02:21:04.154Z,87.00
2022-10-05T02:23:33.802Z,87.40
2022-10-05T02:26:00.941Z,87.50
2022-10-05T02:28:43.075Z,86.40
2022-10-05T02:31:11.119Z,86.20
2022-10-05T02:33:38.361Z,85.70
2022-10-05T02:36:18.103Z,85.40
2022-10-05T02:39:14.846Z,84.80
2022-10-05T02:41:57.871Z,84.70
2022-10-05T02:44:36.951Z,84.30
2022-10-05T02:47:12.899Z,84.30
2022-10-05T02:49:58.011Z,83.70
2022-10-05T02:52:56.321Z,83.70
2022-10-05T02:55:51.869Z,83.50
2022-10-05T02:58:23.814Z,83.10
2022-10-05T03:01:00.786Z,83.00
2022-10-05T03:03:39.590Z,82.80
2022-10-05T03:06:14.680Z,82.70
2022-10-05T03:09:00.196Z,82.80
2022-10-05T03:12:01.601Z,82.80
2022-10-05T03:14:43.703Z,82.80
2022-10-05T03:17:14.754Z,82.80
2022-10-05T03:19:47.857Z,82.90
2022-10-05T03:22:21.114Z,83.00
2022-10-05T03:25:06.065Z,83.30
2022-10-05T03:27:54.258Z,83.40
2022-10-05T03:30:23.398Z,83.40
2022-10-05T03:32:58.897Z,83.40
2022-10-05T03:35:30.335Z,83.60
2022-10-05T03:38:14.348Z,83.60
2022-10-05T03:41:10.754Z,83.60
2022-10-05T03:43:59.077Z,83.70
2022-10-05T03:47:04.407Z,83.80
2022-10-05T03:49:57.586Z,84.30
2022-10-05T03:52:30.660Z,84.60
2022-10-05T03:55:01.636Z,84.80
2022-10-05T03:57:31.639Z,85.00
2022-10-05T04:00:14.940Z,85.00
2022-10-05T04:03:10.690Z,85.00
2022-10-05T04:05:58.575Z,84.90
2022-10-05T04:08:28.888Z,85.10
2022-10-05T04:10:57.689Z,85.20
2022-10-05T04:13:27.743Z,85.40
2022-10-05T04:16:04.386Z,85.70
2022-10-05T04:18:44.114Z,86.10
2022-10-05T04:21:35.107Z,86.10
2022-10-05T04:24:23.579Z,86.20
2022-10-05T04:26:55.891Z,86.30
2022-10-05T04:29:32.725Z,86.50
2022-10-05T04:32:06.388Z,86.80
2022-10-05T04:35:00.712Z,86.60
2022-10-05T04:37:36.726Z,86.40
2022-10-05T04:40:23.168Z,86.60
2022-10-05T04:42:59.205Z,86.40
2022-10-05T04:45:44.338Z,86.10
2022-10-05T04:48:23.259Z,85.70
2022-10-05T04:51:02.435Z,85.40
2022-10-05T04:53:31.312Z,85.30
2022-10-05T04:56:20.480Z,85.30
2022-10-05T04:58:57.193Z,85.10
2022-10-05T05:01:34.439Z,84.50
2022-10-05T05:04:25.166Z,84.80
2022-10-05T05:07:11.010Z,85.00
2022-10-05T05:10:15.469Z,84.60
2022-10-05T05:13:13.425Z,84.30
2022-10-05T05:15:49.893Z,84.30
2022-10-05T05:18:54.192Z,84.50
2022-10-05T05:21:42.691Z,84.30
2022-10-05T05:24:16.429Z,84.30
2022-10-05T05:26:49.664Z,84.30
2022-10-05T05:29:33.041Z,84.30
2022-10-05T05:32:23.994Z,84.30
2022-10-05T05:35:04.760Z,84.20
2022-10-05T05:37:52.962Z,84.20
2022-10-05T05:40:33.473Z,84.40
2022-10-05T05:43:24.695Z,84.50
2022-10-05T05:46:06.055Z,84.70
2022-10-05T05:48:36.017Z,85.00
2022-10-05T05:51:25.601Z,85.10
2022-10-05T05:54:30.166Z,85.40
2022-10-05T05:57:16.598Z,86.00
2022-10-05T06:00:05.794Z,86.20
2022-10-05T06:03:09.922Z,86.40
2022-10-05T06:06:07.149Z,86.70
2022-10-05T06:08:44.655Z,87.00
2022-10-05T06:11:47.190Z,87.10
2022-10-05T06:14:18.535Z,87.10
2022-10-05T06:16:52.489Z,87.30
2022-10-05T06:19:22.534Z,87.40
2022-10-05T06:21:55.737Z,87.10
2022-10-05T06:24:46.105Z,87.00
2022-10-05T06:27:37.276Z,86.90
2022-10-05T06:30:15.185Z,86.10
2022-10-05T06:33:05.866Z,85.40
2022-10-05T06:35:51.452Z,85.30
2022-10-05T06:38:44.872Z,85.10
2022-10-05T06:41:51.624Z,84.40
2022-10-05T06:44:24.967Z,82.90
2022-10-05T06:47:43.616Z,81.70
2022-10-05T06:50:37.529Z,81.10
2022-10-05T06:53:48.474Z,80.70
2022-10-05T06:56:29.345Z,79.70
2022-10-05T06:59:15.034Z,79.50
2022-10-05T07:01:57.315Z,79.10
2022-10-05T07:04:44.310Z,78.40
2022-10-05T07:07:11.331Z,78.30
2022-10-05T07:09:53.786Z,78.30
2022-10-05T07:12:59.288Z,78.20
2022-10-05T07:15:44.282Z,77.80
2022-10-05T07:18:26.020Z,77.80
2022-10-05T07:21:17.661Z,77.40
2022-10-05T07:24:13.834Z,77.10
2022-10-05T07:26:45.534Z,76.90
2022-10-05T07:29:42.972Z,77.00
2022-10-05T07:32:28.781Z,76.70
2022-10-05T07:35:01.804Z,76.40
2022-10-05T07:37:57.806Z,76.30
2022-10-05T07:40:37.852Z,76.00
2022-10-05T07:43:40.288Z,76.10
2022-10-05T07:46:25.544Z,76.10
2022-10-05T07:48:58.399Z,75.90
2022-10-05T07:52:11.383Z,76.10
2022-10-05T07:54:46.271Z,76.10
2022-10-05T07:57:33.192Z,76.80
2022-10-05T08:00:20.707Z,75.80
2022-10-05T08:02:54.700Z,75.80
2022-10-05T08:05:26.644Z,75.70
2022-10-05T08:08:09.184Z,76.10
2022-10-05T08:10:55.275Z,75.90
2022-10-05T08:13:39.596Z,75.80
2022-10-05T08:16:12.768Z,76.10
2022-10-05T08:18:49.649Z,76.30
2022-10-05T08:21:17.556Z,76.00
2022-10-05T08:24:07.304Z,75.40
2022-10-05T08:27:05.117Z,74.50
2022-10-05T08:29:39.657Z,74.10
2022-10-05T08:32:19.249Z,74.30
2022-10-05T08:35:04.351Z,73.50
2022-10-05T08:37:38.614Z,73.10
2022-10-05T08:40:40.024Z,73.70
2022-10-05T08:43:13.274Z,72.70
2022-10-05T08:45:46.879Z,73.90
2022-10-05T08:48:36.244Z,73.20
2022-10-05T08:51:12.176Z,73.40
2022-10-05T08:53:49.650Z,72.70
2022-10-05T08:56:31.930Z,73.10
2022-10-05T08:59:15.793Z,72.70
2022-10-05T09:01:49.962Z,71.90
2022-10-05T09:04:22.830Z,72.10
2022-10-05T09:07:09.325Z,72.00
2022-10-05T09:10:09.045Z,72.60
2022-10-05T09:13:05.163Z,73.10
2022-10-05T09:15:44.214Z,73.30
2022-10-05T09:18:33.410Z,73.70
2022-10-05T09:21:14.598Z,73.80
2022-10-05T09:23:44.951Z,73.80
2022-10-05T09:26:30.202Z,73.70
2022-10-05T09:29:35.006Z,73.30
2022-10-05T09:32:40.002Z,73.80
2022-10-05T09:35:21.284Z,73.70
2022-10-05T09:38:12.258Z,73.80
2022-10-05T09:40:47.747Z,73.80
2022-10-05T09:43:45.741Z,73.60
2022-10-05T09:46:28.234Z,73.80
2022-10-05T09:49:10.105Z,73.90
2022-10-05T09:51:48.475Z,73.70
2022-10-05T09:54:54.040Z,73.70
2022-10-05T09:57:36.402Z,73.70
2022-10-05T10:00:21.673Z,73.70
2022-10-05T10:03:15.502Z,73.80
2022-10-05T10:06:11.429Z,73.80
2022-10-05T10:09:11.784Z,73.80
2022-10-05T10:12:12.733Z,73.90
2022-10-05T10:14:42.815Z,73.70
2022-10-05T10:17:16.462Z,73.40
2022-10-05T10:20:15.864Z,73.40
2022-10-05T10:23:20.254Z,72.90
2022-10-05T10:26:19.499Z,72.70
2022-10-05T10:29:17.168Z,72.70
2022-10-05T10:32:21.632Z,73.10
2022-10-05T10:34:54.789Z,73.20
2022-10-05T10:38:15.366Z,73.50
2022-10-05T10:41:01.543Z,73.90
2022-10-05T10:43:39.443Z,73.80
2022-10-05T10:46:33.854Z,73.80
2022-10-05T10:49:26.272Z,73.90
2022-10-05T10:51:53.190Z,73.90
2022-10-05T10:54:20.290Z,73.90
2022-10-05T10:57:04.925Z,73.50
2022-10-05T11:00:21.080Z,73.80
2022-10-05T11:02:51.211Z,73.30
2022-10-05T11:05:37.801Z,73.40
2022-10-05T11:08:26.379Z,74.00
2022-10-05T11:11:14.439Z,74.00
2022-10-05T11:13:53.457Z,73.70
2022-10-05T11:16:23.239Z,73.80
2022-10-05T11:19:06.726Z,73.60
2022-10-05T11:21:59.692Z,73.30
2022-10-05T11:24:32.730Z,73.50
2022-10-05T11:30:13.774Z,73.80
2022-10-05T11:33:18.748Z,74.80
2022-10-05T11:36:00.765Z,74.80
2022-10-05T11:38:42.385Z,75.00
2022-10-05T11:41:37.054Z,75.30
2022-10-05T11:44:32.223Z,75.80
2022-10-05T11:47:12.052Z,76.20
2022-10-05T11:50:10.121Z,77.10
2022-10-05T11:52:46.274Z,77.60
2022-10-05T11:55:23.767Z,78.10
2022-10-05T11:58:16.332Z,78.60
2022-10-05T12:00:50.120Z,79.00
2022-10-05T12:03:37.351Z,79.40
2022-10-05T12:06:25.758Z,80.20
2022-10-05T12:08:58.601Z,80.40
2022-10-05T12:12:03.761Z,80.10
2022-10-05T12:14:33.513Z,80.60
2022-10-05T12:17:21.017Z,81.50
2022-10-05T12:19:50.688Z,81.90
2022-10-05T12:22:38.660Z,82.00
2022-10-05T12:25:18.081Z,81.90
2022-10-05T12:27:46.431Z,82.40
2022-10-05T12:30:37.416Z,84.60
2022-10-05T12:33:17.885Z,87.10
2022-10-05T12:35:58.515Z,89.00
2022-10-05T12:38:40.575Z,89.70
2022-10-05T12:41:19.620Z,90.30
2022-10-05T12:44:02.581Z,91.70
2022-10-05T12:46:41.171Z,92.70
2022-10-05T12:49:30.460Z,93.10
2022-10-05T12:51:59.263Z,94.40
2022-10-05T12:54:55.133Z,96.10
2022-10-05T12:57:40.094Z,97.40
2022-10-05T13:00:20.429Z,98.80
2022-10-05T13:03:10.200Z,99.30
2022-10-05T13:05:48.597Z,99.10
2022-10-05T13:08:47.813Z,98.60
2022-10-05T13:11:19.793Z,97.80
2022-10-05T13:13:53.290Z,97.30
2022-10-05T13:16:40.665Z,96.30
2022-10-05T13:19:08.209Z,95.80
2022-10-05T13:21:46.615Z,95.90
2022-10-05T13:24:20.062Z,95.50
2022-10-05T13:26:51.264Z,94.40
2022-10-05T13:29:45.338Z,93.90
2022-10-05T13:32:35.890Z,94.60
2022-10-05T13:35:35.714Z,94.50
2022-10-05T13:38:11.907Z,94.80
2022-10-05T13:40:45.743Z,94.10
2022-10-05T13:43:21.473Z,94.20
2022-10-05T13:45:55.687Z,93.90
2022-10-05T13:48:42.535Z,93.90
2022-10-05T13:51:28.085Z,94.20
2022-10-05T13:54:01.600Z,94.70
2022-10-05T13:56:36.911Z,99.90
2022-10-05T13:59:24.338Z,98.40
2022-10-05T14:02:15.934Z,99.90
2022-10-05T14:05:15.232Z,99.90
2022-10-05T14:08:02.613Z,99.90
2022-10-05T14:10:33.931Z,99.90
2022-10-05T14:13:02.185Z,99.90
2022-10-05T14:15:38.497Z,99.90
2022-10-05T14:18:24.888Z,99.90
2022-10-05T14:21:02.239Z,99.90
2022-10-05T14:23:29.229Z,99.90
2022-10-05T14:25:56.547Z,99.80
2022-10-05T14:28:32.240Z,99.90
2022-10-05T14:31:16.310Z,99.00
2022-10-05T14:33:43.580Z,97.80
2022-10-05T14:36:22.401Z,98.90
2022-10-05T14:38:55.270Z,97.90
2022-10-05T14:41:25.034Z,97.30
2022-10-05T14:44:04.473Z,96.70
2022-10-05T14:46:32.836Z,96.40
2022-10-05T14:49:21.138Z,94.90
2022-10-05T14:51:49.128Z,95.80
2022-10-05T14:54:29.200Z,95.00
2022-10-05T14:57:06.835Z,94.70
2022-10-05T14:59:53.865Z,95.10
2022-10-05T15:02:53.084Z,94.90
2022-10-05T15:06:01.816Z,93.20
2022-10-05T15:08:57.393Z,93.90
2022-10-05T15:11:49.929Z,93.80
2022-10-05T15:14:24.353Z,93.90
2022-10-05T15:16:57.239Z,92.50
2022-10-05T15:19:52.802Z,92.20
2022-10-05T15:22:29.903Z,92.30
2022-10-05T15:25:04.817Z,92.40
2022-10-05T15:27:54.131Z,90.80
2022-10-05T15:30:22.507Z,91.00
2022-10-05T15:33:35.591Z,91.10
2022-10-05T15:36:24.563Z,91.00
2022-10-05T15:39:13.342Z,90.40
2022-10-05T15:41:55.525Z,90.40
2022-10-05T15:44:26.096Z,90.50
2022-10-05T15:46:59.031Z,90.50
2022-10-05T15:49:47.479Z,90.50
2022-10-05T15:52:37.908Z,90.90
2022-10-05T15:55:27.697Z,88.80
2022-10-05T15:58:22.945Z,88.60
2022-10-05T16:01:19.962Z,88.30
2022-10-05T16:04:09.814Z,85.10
2022-10-05T16:07:01.079Z,84.40
2022-10-05T16:09:34.321Z,84.20
2022-10-05T16:12:28.137Z,85.00
2022-10-05T16:15:16.625Z,85.70
2022-10-05T16:17:56.663Z,84.40
2022-10-05T16:20:51.100Z,84.60
2022-10-05T16:23:24.313Z,85.20
2022-10-05T16:25:54.450Z,85.10
2022-10-05T16:28:47.809Z,84.20
2022-10-05T16:31:26.476Z,82.30
2022-10-05T16:34:22.406Z,82.70
2022-10-05T16:37:00.264Z,83.60
2022-10-05T16:39:49.182Z,82.80
2022-10-05T16:42:42.058Z,82.90
2022-10-05T16:45:12.037Z,82.30
2022-10-05T16:48:06.486Z,82.60
2022-10-05T16:51:07.700Z,80.30
2022-10-05T16:53:38.737Z,80.20
2022-10-05T16:56:17.235Z,80.60
2022-10-05T16:58:59.639Z,78.80
2022-10-05T17:01:44.709Z,78.90
2022-10-05T17:04:59.014Z,78.10
2022-10-05T17:07:28.894Z,78.00
2022-10-05T17:10:37.150Z,78.20
2022-10-05T17:13:43.725Z,77.00
2022-10-05T17:16:29.617Z,76.80
2022-10-05T17:19:06.172Z,77.40
2022-10-05T17:21:56.027Z,77.20
2022-10-05T17:24:44.505Z,76.80
2022-10-05T17:27:56.055Z,76.80
2022-10-05T17:30:55.353Z,75.90
2022-10-05T17:33:32.215Z,76.20
2022-10-05T17:36:08.460Z,74.80
2022-10-05T17:38:35.491Z,75.00
2022-10-05T17:41:20.592Z,74.90
2022-10-05T17:44:13.620Z,74.90
2022-10-05T17:46:45.936Z,74.10
2022-10-05T17:49:20.433Z,75.20
2022-10-05T17:52:09.453Z,74.50
2022-10-05T17:55:03.903Z,74.90
2022-10-05T17:57:31.218Z,75.20
2022-10-05T18:00:00.716Z,75.40
2022-10-05T18:02:38.462Z,75.90
2022-10-05T18:05:12.495Z,76.50
2022-10-05T18:07:40.265Z,76.40
2022-10-05T18:10:11.647Z,76.70
2022-10-05T18:12:48.751Z,77.00
2022-10-05T18:15:36.800Z,76.70
2022-10-05T18:18:33.046Z,76.90
2022-10-05T18:21:15.296Z,77.10
2022-10-05T18:23:53.017Z,77.30
2022-10-05T18:26:35.884Z,77.60
2022-10-05T18:29:14.921Z,77.30
2022-10-05T18:31:53.480Z,76.90
2022-10-05T18:34:35.452Z,76.10
2022-10-05T18:37:07.287Z,76.40
2022-10-05T18:40:00.815Z,76.10
2022-10-05T18:42:59.836Z,75.60
2022-10-05T18:45:39.218Z,76.00
2022-10-05T18:48:38.962Z,76.10
2022-10-05T18:51:24.368Z,76.10
2022-10-05T18:54:00.253Z,76.10
2022-10-05T18:56:49.883Z,76.20
2022-10-05T18:59:52.384Z,76.40
2022-10-05T19:02:24.630Z,76.00
2022-10-05T19:05:47.583Z,76.50
2022-10-05T19:08:24.532Z,77.70
2022-10-05T19:11:04.459Z,77.80
2022-10-05T19:13:43.601Z,77.30
2022-10-05T19:16:41.225Z,76.90
2022-10-05T19:19:12.310Z,76.70
2022-10-05T19:21:52.855Z,77.30
2022-10-05T19:24:42.759Z,77.80
2022-10-05T19:27:40.275Z,77.90
2022-10-05T19:30:19.332Z,78.40
2022-10-05T19:32:49.340Z,78.50
2022-10-05T19:35:25.130Z,78.30
2022-10-05T19:38:15.752Z,78.00
2022-10-05T19:41:07.484Z,78.10
2022-10-05T19:43:50.390Z,78.00
2022-10-05T19:46:39.026Z,78.10
2022-10-05T19:49:08.507Z,78.10
2022-10-05T19:51:46.551Z,78.00
2022-10-05T19:54:30.157Z,77.80
2022-10-05T19:56:57.874Z,78.00
2022-10-05T19:59:32.025Z,77.30
2022-10-05T20:01:59.669Z,77.70
2022-10-05T20:04:44.238Z,77.50
2022-10-05T20:07:16.696Z,78.00
2022-10-05T20:09:51.955Z,77.60
2022-10-05T20:12:19.188Z,77.40
2022-10-05T20:15:18.652Z,77.60
2022-10-05T20:18:04.200Z,77.10
2022-10-05T20:20:47.058Z,77.10
2022-10-05T20:23:23.350Z,77.20
2022-10-05T20:26:11.686Z,77.30
2022-10-05T20:28:39.040Z,77.40
2022-10-05T20:31:08.623Z,77.70
2022-10-05T20:33:40.499Z,77.50
2022-10-05T20:36:09.454Z,77.80
2022-10-05T20:38:41.033Z,77.50
2022-10-05T20:41:09.430Z,77.50
2022-10-05T20:43:39.623Z,77.70
2022-10-05T20:46:08.170Z,77.60
2022-10-05T20:48:36.614Z,77.90
2022-10-05T20:51:04.435Z,77.50
2022-10-05T20:53:31.967Z,77.30
2022-10-05T20:56:02.555Z,77.30
2022-10-05T20:58:30.636Z,77.60
2022-10-05T21:01:19.343Z,77.10
2022-10-05T21:03:46.946Z,76.90
2022-10-05T21:06:14.231Z,77.70
2022-10-05T21:08:41.258Z,77.00
2022-10-05T21:11:11.356Z,77.30
2022-10-05T21:13:42.496Z,77.00
2022-10-05T21:16:13.083Z,76.90
2022-10-05T21:18:40.374Z,76.80
2022-10-05T21:21:07.839Z,76.90
2022-10-05T21:23:35.129Z,76.80
2022-10-05T21:26:02.189Z,76.80
2022-10-05T21:28:30.005Z,76.80
2022-10-05T21:30:57.355Z,76.70
2022-10-05T21:33:24.634Z,77.00
2022-10-05T21:35:51.971Z,76.80
2022-10-05T21:38:18.905Z,76.70
2022-10-05T21:40:46.016Z,76.70
2022-10-05T21:43:15.589Z,76.40
2022-10-05T21:45:49.523Z,76.00
2022-10-05T21:48:20.496Z,76.60
2022-10-05T21:50:47.579Z,76.30
2022-10-05T21:53:15.869Z,75.80
2022-10-05T21:55:44.162Z,75.80
2022-10-05T21:58:15.140Z,76.10
2022-10-05T22:00:42.237Z,75.80
2022-10-05T22:03:09.418Z,75.50
2022-10-05T22:05:36.722Z,75.70
2022-10-05T22:08:04.601Z,75.50
2022-10-05T22:10:32.009Z,75.60
2022-10-05T22:13:03.244Z,75.60
2022-10-05T22:15:30.647Z,75.60
2022-10-05T22:17:58.337Z,75.90
2022-10-05T22:20:25.414Z,75.90
2022-10-05T22:22:55.314Z,75.80
2022-10-05T22:25:22.427Z,76.00
2022-10-05T22:27:49.661Z,76.00
2022-10-05T22:30:17.462Z,76.20
2022-10-05T22:32:44.747Z,76.30
2022-10-05T22:35:12.055Z,76.50
2022-10-05T22:37:39.361Z,76.40
2022-10-05T22:40:07.108Z,76.90
2022-10-05T22:42:34.677Z,76.40
2022-10-05T22:45:01.814Z,76.40
2022-10-05T22:47:28.784Z,76.40
2022-10-05T22:49:55.961Z,76.40
2022-10-05T22:52:23.246Z,76.70
2022-10-05T22:54:50.442Z,76.60
2022-10-05T22:57:17.403Z,77.00
2022-10-05T22:59:44.365Z,77.20
2022-10-05T23:02:13.995Z,77.50
2022-10-05T23:04:41.099Z,77.30
2022-10-05T23:07:08.130Z,77.70
2022-10-05T23:09:35.063Z,78.00
2022-10-05T23:12:02.029Z,78.20
2022-10-05T23:14:31.076Z,78.30
2022-10-05T23:17:08.456Z,78.70
2022-10-05T23:19:35.631Z,78.90
2022-10-05T23:22:03.055Z,78.90
2022-10-05T23:24:30.160Z,79.00
2022-10-05T23:26:57.208Z,79.40
2022-10-05T23:29:24.624Z,79.50
2022-10-05T23:31:51.887Z,79.70
2022-10-05T23:34:18.904Z,79.80
2022-10-05T23:36:46.607Z,80.60
2022-10-05T23:39:14.111Z,80.40
2022-10-05T23:41:40.966Z,80.30
2022-10-05T23:44:07.963Z,80.40
2022-10-05T23:46:35.056Z,80.40
2022-10-05T23:49:02.026Z,80.40
2022-10-05T23:51:33.844Z,80.50
2022-10-05T23:54:01.101Z,81.00
2022-10-05T23:56:27.999Z,80.80
2022-10-05T23:58:54.914Z,81.00
